sensor_id;sensor_type;location;lat;lon;timestamp;temperature;humidity
10536;DHT22;5316;49.538;8.352;2023-07-29T00:01:50;19.20;99.90
10536;DHT22;5316;49.538;8.352;2023-07-29T00:04:17;19.30;99.90
10536;DHT22;5316;49.538;8.352;2023-07-29T00:06:46;19.20;99.90
10536;DHT22;5316;49.538;8.352;2023-07-29T00:09:13;19.30;99.90
10536;DHT22;5316;49.538;8.352;2023-07-29T00:11:40;19.30;99.90
10536;DHT22;5316;49.538;8.352;2023-07-29T00:14:07;19.30;99.90
10536;DHT22;5316;49.538;8.352;2023-07-29T00:16:33;19.30;99.90
10536;DHT22;5316;49.538;8.352;2023-07-29T00:19:11;19.30;99.90
10536;DHT22;5316;49.538;8.352;2023-07-29T00:21:37;19.30;99.90
10536;DHT22;5316;49.538;8.352;2023-07-29T00:24:05;19.30;99.90
10536;DHT22;5316;49.538;8.352;2023-07-29T00:26:32;19.30;99.90
10536;DHT22;5316;49.538;8.352;2023-07-29T00:28:58;19.30;99.90
10536;DHT22;5316;49.538;8.352;2023-07-29T00:31:25;19.30;99.90
10536;DHT22;5316;49.538;8.352;2023-07-29T00:33:52;19.30;99.90
10536;DHT22;5316;49.538;8.352;2023-07-29T00:36:20;19.40;99.90
10536;DHT22;5316;49.538;8.352;2023-07-29T00:38:47;19.40;99.90
10536;DHT22;5316;49.538;8.352;2023-07-29T00:41:14;19.40;99.90
10536;DHT22;5316;49.538;8.352;2023-07-29T00:43:41;19.40;99.90
10536;DHT22;5316;49.538;8.352;2023-07-29T00:46:09;19.50;99.90
10536;DHT22;5316;49.538;8.352;2023-07-29T00:48:36;19.50;99.90
10536;DHT22;5316;49.538;8.352;2023-07-29T00:51:03;19.50;99.90
10536;DHT22;5316;49.538;8.352;2023-07-29T00:53:33;19.40;99.90
10536;DHT22;5316;49.538;8.352;2023-07-29T00:56:00;19.40;99.90
10536;DHT22;5316;49.538;8.352;2023-07-29T00:58:27;19.40;99.90
10536;DHT22;5316;49.538;8.352;2023-07-29T01:00:56;19.50;99.90
10536;DHT22;5316;49.538;8.352;2023-07-29T01:03:23;19.50;99.90
10536;DHT22;5316;49.538;8.352;2023-07-29T01:06:04;19.60;99.90
10536;DHT22;5316;49.538;8.352;2023-07-29T01:08:41;19.50;99.90
10536;DHT22;5316;49.538;8.352;2023-07-29T01:11:18;19.60;99.90
10536;DHT22;5316;49.538;8.352;2023-07-29T01:13:52;19.60;99.90
10536;DHT22;5316;49.538;8.352;2023-07-29T01:16:23;19.60;99.90
10536;DHT22;5316;49.538;8.352;2023-07-29T01:18:53;19.60;99.90
10536;DHT22;5316;49.538;8.352;2023-07-29T01:21:21;19.60;99.90
10536;DHT22;5316;49.538;8.352;2023-07-29T01:23:52;19.60;99.90
10536;DHT22;5316;49.538;8.352;2023-07-29T01:26:19;19.70;99.90
10536;DHT22;5316;49.538;8.352;2023-07-29T01:28:45;19.70;99.90
10536;DHT22;5316;49.538;8.352;2023-07-29T01:31:16;19.70;99.90
10536;DHT22;5316;49.538;8.352;2023-07-29T01:33:59;19.70;99.90
10536;DHT22;5316;49.538;8.352;2023-07-29T01:36:29;19.60;99.90
10536;DHT22;5316;49.538;8.352;2023-07-29T01:39:02;19.60;99.90
10536;DHT22;5316;49.538;8.352;2023-07-29T01:41:29;19.50;99.90
10536;DHT22;5316;49.538;8.352;2023-07-29T01:43:57;19.50;99.90
10536;DHT22;5316;49.538;8.352;2023-07-29T01:46:24;19.60;99.90
10536;DHT22;5316;49.538;8.352;2023-07-29T01:48:51;19.50;99.90
10536;DHT22;5316;49.538;8.352;2023-07-29T01:51:18;19.50;99.90
10536;DHT22;5316;49.538;8.352;2023-07-29T01:53:45;19.40;99.90
10536;DHT22;5316;49.538;8.352;2023-07-29T01:56:13;19.40;99.90
10536;DHT22;5316;49.538;8.352;2023-07-29T01:58:40;19.40;99.90
10536;DHT22;5316;49.538;8.352;2023-07-29T02:01:06;19.40;99.90
10536;DHT22;5316;49.538;8.352;2023-07-29T02:03:33;19.30;99.90
10536;DHT22;5316;49.538;8.352;2023-07-29T02:06:00;19.30;99.90
10536;DHT22;5316;49.538;8.352;2023-07-29T02:08:26;19.30;99.90
10536;DHT22;5316;49.538;8.352;2023-07-29T02:10:53;19.30;99.90
10536;DHT22;5316;49.538;8.352;2023-07-29T02:13:21;19.30;99.90
10536;DHT22;5316;49.538;8.352;2023-07-29T02:15:48;19.30;99.90
10536;DHT22;5316;49.538;8.352;2023-07-29T02:18:15;19.30;99.90
10536;DHT22;5316;49.538;8.352;2023-07-29T02:20:41;19.30;99.90
10536;DHT22;5316;49.538;8.352;2023-07-29T02:23:14;19.30;99.90
10536;DHT22;5316;49.538;8.352;2023-07-29T02:25:41;19.20;99.90
10536;DHT22;5316;49.538;8.352;2023-07-29T02:28:08;19.20;99.90
10536;DHT22;5316;49.538;8.352;2023-07-29T02:30:36;19.20;99.90
10536;DHT22;5316;49.538;8.352;2023-07-29T02:33:03;19.10;99.90
10536;DHT22;5316;49.538;8.352;2023-07-29T02:35:30;19.10;99.90
10536;DHT22;5316;49.538;8.352;2023-07-29T02:37:57;19.10;99.90
10536;DHT22;5316;49.538;8.352;2023-07-29T02:40:23;19.10;99.90
10536;DHT22;5316;49.538;8.352;2023-07-29T02:42:52;19.10;99.90
10536;DHT22;5316;49.538;8.352;2023-07-29T02:45:19;19.10;99.90
10536;DHT22;5316;49.538;8.352;2023-07-29T02:47:47;19.10;99.90
10536;DHT22;5316;49.538;8.352;2023-07-29T02:50:14;19.10;99.90
10536;DHT22;5316;49.538;8.352;2023-07-29T02:52:40;19.10;99.90
10536;DHT22;5316;49.538;8.352;2023-07-29T02:55:07;19.10;99.90
10536;DHT22;5316;49.538;8.352;2023-07-29T02:57:34;19.10;99.90
10536;DHT22;5316;49.538;8.352;2023-07-29T03:00:01;19.20;99.90
10536;DHT22;5316;49.538;8.352;2023-07-29T03:02:28;19.20;99.90
10536;DHT22;5316;49.538;8.352;2023-07-29T03:04:56;19.20;99.90
10536;DHT22;5316;49.538;8.352;2023-07-29T03:07:23;19.20;99.90
10536;DHT22;5316;49.538;8.352;2023-07-29T03:09:50;19.20;99.90
10536;DHT22;5316;49.538;8.352;2023-07-29T03:12:17;19.20;99.90
10536;DHT22;5316;49.538;8.352;2023-07-29T03:14:47;19.20;99.90
10536;DHT22;5316;49.538;8.352;2023-07-29T03:17:14;19.20;99.90
10536;DHT22;5316;49.538;8.352;2023-07-29T03:19:40;19.20;99.90
10536;DHT22;5316;49.538;8.352;2023-07-29T03:22:08;19.20;99.90
10536;DHT22;5316;49.538;8.352;2023-07-29T03:24:35;19.30;99.90
10536;DHT22;5316;49.538;8.352;2023-07-29T03:27:03;19.30;99.90
10536;DHT22;5316;49.538;8.352;2023-07-29T03:29:30;19.30;99.90
10536;DHT22;5316;49.538;8.352;2023-07-29T03:31:57;19.20;99.90
10536;DHT22;5316;49.538;8.352;2023-07-29T03:34:24;19.20;99.90
10536;DHT22;5316;49.538;8.352;2023-07-29T03:36:51;19.10;99.90
10536;DHT22;5316;49.538;8.352;2023-07-29T03:39:19;19.10;99.90
10536;DHT22;5316;49.538;8.352;2023-07-29T03:41:46;19.10;99.90
10536;DHT22;5316;49.538;8.352;2023-07-29T03:44:13;19.10;99.90
10536;DHT22;5316;49.538;8.352;2023-07-29T03:46:43;19.10;99.90
10536;DHT22;5316;49.538;8.352;2023-07-29T03:49:09;19.10;99.90
10536;DHT22;5316;49.538;8.352;2023-07-29T03:51:36;19.00;99.90
10536;DHT22;5316;49.538;8.352;2023-07-29T03:54:03;19.00;99.90
10536;DHT22;5316;49.538;8.352;2023-07-29T03:56:31;19.00;99.90
10536;DHT22;5316;49.538;8.352;2023-07-29T03:59:02;19.00;99.90
10536;DHT22;5316;49.538;8.352;2023-07-29T04:01:29;19.00;99.90
10536;DHT22;5316;49.538;8.352;2023-07-29T04:03:56;19.00;99.90
10536;DHT22;5316;49.538;8.352;2023-07-29T04:06:23;19.00;99.90
10536;DHT22;5316;49.538;8.352;2023-07-29T04:08:49;19.00;99.90
10536;DHT22;5316;49.538;8.352;2023-07-29T04:11:16;19.00;99.90
10536;DHT22;5316;49.538;8.352;2023-07-29T04:13:44;19.00;99.90
10536;DHT22;5316;49.538;8.352;2023-07-29T04:16:11;19.00;99.90
10536;DHT22;5316;49.538;8.352;2023-07-29T04:18:38;19.00;99.90
10536;DHT22;5316;49.538;8.352;2023-07-29T04:21:05;19.00;99.90
10536;DHT22;5316;49.538;8.352;2023-07-29T04:23:32;19.10;99.90
10536;DHT22;5316;49.538;8.352;2023-07-29T04:25:58;19.10;99.90
10536;DHT22;5316;49.538;8.352;2023-07-29T04:28:25;19.10;99.90
10536;DHT22;5316;49.538;8.352;2023-07-29T04:30:53;19.10;99.90
10536;DHT22;5316;49.538;8.352;2023-07-29T04:33:23;19.10;99.90
10536;DHT22;5316;49.538;8.352;2023-07-29T04:53:20;19.20;99.90
10536;DHT22;5316;49.538;8.352;2023-07-29T05:28:01;19.60;99.90
10536;DHT22;5316;49.538;8.352;2023-07-29T06:55:49;20.60;99.90
10536;DHT22;5316;49.538;8.352;2023-07-29T06:59:26;21.00;99.90
10536;DHT22;5316;49.538;8.352;2023-07-29T07:13:05;21.30;99.90
10536;DHT22;5316;49.538;8.352;2023-07-29T07:16:44;21.30;99.90
10536;DHT22;5316;49.538;8.352;2023-07-29T07:24:02;21.30;99.90
10536;DHT22;5316;49.538;8.352;2023-07-29T07:27:34;21.20;99.90
10536;DHT22;5316;49.538;8.352;2023-07-29T07:50:52;20.10;99.90
10536;DHT22;5316;49.538;8.352;2023-07-29T07:53:59;19.60;99.90
10536;DHT22;5316;49.538;8.352;2023-07-29T08:10:37;18.90;99.90
10536;DHT22;5316;49.538;8.352;2023-07-29T08:13:13;19.00;99.90
10536;DHT22;5316;49.538;8.352;2023-07-29T08:15:49;19.20;99.90
10536;DHT22;5316;49.538;8.352;2023-07-29T08:18:20;19.30;99.90
10536;DHT22;5316;49.538;8.352;2023-07-29T08:20:57;19.40;99.90
10536;DHT22;5316;49.538;8.352;2023-07-29T08:23:26;19.60;99.90
10536;DHT22;5316;49.538;8.352;2023-07-29T08:25:54;19.70;99.90
10536;DHT22;5316;49.538;8.352;2023-07-29T08:28:27;19.90;99.90
10536;DHT22;5316;49.538;8.352;2023-07-29T08:30:54;20.10;99.90
10536;DHT22;5316;49.538;8.352;2023-07-29T08:33:21;20.30;99.90
10536;DHT22;5316;49.538;8.352;2023-07-29T08:35:47;20.40;99.90
10536;DHT22;5316;49.538;8.352;2023-07-29T08:38:17;20.50;99.90
10536;DHT22;5316;49.538;8.352;2023-07-29T08:40:48;20.60;99.90
10536;DHT22;5316;49.538;8.352;2023-07-29T08:43:18;20.80;99.90
10536;DHT22;5316;49.538;8.352;2023-07-29T08:45:46;20.90;99.90
10536;DHT22;5316;49.538;8.352;2023-07-29T08:48:15;20.70;99.90
10536;DHT22;5316;49.538;8.352;2023-07-29T08:50:46;21.10;99.90
10536;DHT22;5316;49.538;8.352;2023-07-29T08:53:14;21.10;99.90
10536;DHT22;5316;49.538;8.352;2023-07-29T08:55:42;21.10;99.90
10536;DHT22;5316;49.538;8.352;2023-07-29T08:58:10;21.20;99.90
10536;DHT22;5316;49.538;8.352;2023-07-29T09:00:38;21.30;99.90
10536;DHT22;5316;49.538;8.352;2023-07-29T09:03:06;21.40;99.90
10536;DHT22;5316;49.538;8.352;2023-07-29T09:05:33;21.50;99.90
10536;DHT22;5316;49.538;8.352;2023-07-29T09:08:00;21.60;99.90
10536;DHT22;5316;49.538;8.352;2023-07-29T09:10:28;21.60;99.90
10536;DHT22;5316;49.538;8.352;2023-07-29T09:12:56;21.70;99.90
10536;DHT22;5316;49.538;8.352;2023-07-29T09:15:27;21.70;99.90
10536;DHT22;5316;49.538;8.352;2023-07-29T09:17:56;21.80;99.90
10536;DHT22;5316;49.538;8.352;2023-07-29T09:20:26;21.90;99.90
10536;DHT22;5316;49.538;8.352;2023-07-29T09:22:58;22.00;99.90
10536;DHT22;5316;49.538;8.352;2023-07-29T09:25:26;21.90;99.90
10536;DHT22;5316;49.538;8.352;2023-07-29T09:28:00;21.90;99.90
10536;DHT22;5316;49.538;8.352;2023-07-29T09:30:27;21.90;92.00
10536;DHT22;5316;49.538;8.352;2023-07-29T09:32:55;21.70;99.90
10536;DHT22;5316;49.538;8.352;2023-07-29T09:35:23;21.80;18.90
10536;DHT22;5316;49.538;8.352;2023-07-29T09:37:50;21.80;18.60
10536;DHT22;5316;49.538;8.352;2023-07-29T09:40:18;21.80;69.40
10536;DHT22;5316;49.538;8.352;2023-07-29T09:42:48;21.80;51.80
10536;DHT22;5316;49.538;8.352;2023-07-29T09:45:21;21.70;26.50
10536;DHT22;5316;49.538;8.352;2023-07-29T09:47:48;21.80;25.10
10536;DHT22;5316;49.538;8.352;2023-07-29T09:50:15;21.90;31.30
10536;DHT22;5316;49.538;8.352;2023-07-29T09:52:43;22.00;56.20
10536;DHT22;5316;49.538;8.352;2023-07-29T09:55:11;22.00;43.50
10536;DHT22;5316;49.538;8.352;2023-07-29T09:57:39;22.20;28.70
10536;DHT22;5316;49.538;8.352;2023-07-29T10:00:07;22.20;1.00
10536;DHT22;5316;49.538;8.352;2023-07-29T10:02:39;22.30;1.00
10536;DHT22;5316;49.538;8.352;2023-07-29T10:05:06;22.40;1.00
10536;DHT22;5316;49.538;8.352;2023-07-29T10:07:34;22.50;1.00
10536;DHT22;5316;49.538;8.352;2023-07-29T10:10:04;22.60;1.00
10536;DHT22;5316;49.538;8.352;2023-07-29T10:12:32;22.70;1.00
10536;DHT22;5316;49.538;8.352;2023-07-29T10:14:59;22.60;1.00
10536;DHT22;5316;49.538;8.352;2023-07-29T10:17:27;22.60;1.00
10536;DHT22;5316;49.538;8.352;2023-07-29T10:19:56;22.70;1.00
10536;DHT22;5316;49.538;8.352;2023-07-29T10:22:26;22.70;1.00
10536;DHT22;5316;49.538;8.352;2023-07-29T10:24:56;22.70;1.00
10536;DHT22;5316;49.538;8.352;2023-07-29T10:27:27;22.80;1.00
10536;DHT22;5316;49.538;8.352;2023-07-29T10:29:55;23.00;1.00
10536;DHT22;5316;49.538;8.352;2023-07-29T10:32:25;23.00;1.00
10536;DHT22;5316;49.538;8.352;2023-07-29T10:34:52;23.10;1.00
10536;DHT22;5316;49.538;8.352;2023-07-29T10:37:21;23.20;1.00
10536;DHT22;5316;49.538;8.352;2023-07-29T10:39:53;23.30;1.00
10536;DHT22;5316;49.538;8.352;2023-07-29T10:42:20;23.40;1.00
10536;DHT22;5316;49.538;8.352;2023-07-29T10:44:51;23.60;1.00
10536;DHT22;5316;49.538;8.352;2023-07-29T10:47:20;23.80;1.00
10536;DHT22;5316;49.538;8.352;2023-07-29T10:49:48;23.90;1.00
10536;DHT22;5316;49.538;8.352;2023-07-29T10:52:16;24.00;1.00
10536;DHT22;5316;49.538;8.352;2023-07-29T10:54:45;24.10;1.00
10536;DHT22;5316;49.538;8.352;2023-07-29T10:57:15;24.20;1.00
10536;DHT22;5316;49.538;8.352;2023-07-29T10:59:54;24.20;1.00
10536;DHT22;5316;49.538;8.352;2023-07-29T11:02:21;24.20;1.00
10536;DHT22;5316;49.538;8.352;2023-07-29T11:04:54;24.20;1.00
10536;DHT22;5316;49.538;8.352;2023-07-29T11:07:22;24.20;1.00
10536;DHT22;5316;49.538;8.352;2023-07-29T11:10:01;24.30;1.00
10536;DHT22;5316;49.538;8.352;2023-07-29T11:12:42;24.40;1.00
10536;DHT22;5316;49.538;8.352;2023-07-29T11:15:16;24.40;1.00
10536;DHT22;5316;49.538;8.352;2023-07-29T11:17:44;24.50;1.00
10536;DHT22;5316;49.538;8.352;2023-07-29T11:20:12;24.50;1.00
10536;DHT22;5316;49.538;8.352;2023-07-29T11:22:39;24.60;1.00
10536;DHT22;5316;49.538;8.352;2023-07-29T11:25:09;24.50;1.00
10536;DHT22;5316;49.538;8.352;2023-07-29T11:27:36;24.50;1.00
10536;DHT22;5316;49.538;8.352;2023-07-29T11:30:04;24.60;1.00
10536;DHT22;5316;49.538;8.352;2023-07-29T11:32:32;24.70;1.00
10536;DHT22;5316;49.538;8.352;2023-07-29T11:35:02;24.80;99.90
10536;DHT22;5316;49.538;8.352;2023-07-29T11:37:29;24.90;99.90
10536;DHT22;5316;49.538;8.352;2023-07-29T11:39:55;25.00;99.90
10536;DHT22;5316;49.538;8.352;2023-07-29T11:42:24;25.10;99.90
10536;DHT22;5316;49.538;8.352;2023-07-29T11:44:51;25.20;99.90
10536;DHT22;5316;49.538;8.352;2023-07-29T11:47:17;25.20;99.90
10536;DHT22;5316;49.538;8.352;2023-07-29T11:49:44;25.30;99.90
10536;DHT22;5316;49.538;8.352;2023-07-29T11:52:11;25.40;99.90
10536;DHT22;5316;49.538;8.352;2023-07-29T11:54:39;25.60;99.90
10536;DHT22;5316;49.538;8.352;2023-07-29T11:57:07;25.60;1.00
10536;DHT22;5316;49.538;8.352;2023-07-29T11:59:36;25.60;1.00
10536;DHT22;5316;49.538;8.352;2023-07-29T12:02:10;25.60;99.90
10536;DHT22;5316;49.538;8.352;2023-07-29T12:04:38;25.60;99.90
10536;DHT22;5316;49.538;8.352;2023-07-29T12:07:05;25.70;99.90
10536;DHT22;5316;49.538;8.352;2023-07-29T12:09:33;25.80;99.90
10536;DHT22;5316;49.538;8.352;2023-07-29T12:12:00;25.90;99.90
10536;DHT22;5316;49.538;8.352;2023-07-29T12:14:28;25.90;99.90
10536;DHT22;5316;49.538;8.352;2023-07-29T12:16:56;25.80;99.90
10536;DHT22;5316;49.538;8.352;2023-07-29T12:19:31;25.80;99.90
10536;DHT22;5316;49.538;8.352;2023-07-29T12:21:58;25.90;99.50
10536;DHT22;5316;49.538;8.352;2023-07-29T12:24:25;26.00;1.00
10536;DHT22;5316;49.538;8.352;2023-07-29T12:26:52;26.10;99.90
10536;DHT22;5316;49.538;8.352;2023-07-29T12:29:19;26.10;99.90
10536;DHT22;5316;49.538;8.352;2023-07-29T12:31:46;26.20;41.80
10536;DHT22;5316;49.538;8.352;2023-07-29T12:34:18;26.20;20.50
10536;DHT22;5316;49.538;8.352;2023-07-29T12:36:47;26.20;1.00
10536;DHT22;5316;49.538;8.352;2023-07-29T12:39:18;26.20;99.90
10536;DHT22;5316;49.538;8.352;2023-07-29T12:41:45;26.10;99.90
10536;DHT22;5316;49.538;8.352;2023-07-29T12:44:12;26.00;1.00
10536;DHT22;5316;49.538;8.352;2023-07-29T12:46:39;26.00;68.10
10536;DHT22;5316;49.538;8.352;2023-07-29T12:49:06;26.10;1.00
10536;DHT22;5316;49.538;8.352;2023-07-29T12:51:34;26.10;99.90
10536;DHT22;5316;49.538;8.352;2023-07-29T12:54:04;26.10;1.00
10536;DHT22;5316;49.538;8.352;2023-07-29T16:48:38;26.80;1.00
10536;DHT22;5316;49.538;8.352;2023-07-29T16:51:08;26.60;99.90
10536;DHT22;5316;49.538;8.352;2023-07-29T16:53:36;26.70;1.00
10536;DHT22;5316;49.538;8.352;2023-07-29T16:56:03;26.70;1.00
10536;DHT22;5316;49.538;8.352;2023-07-29T16:58:30;26.50;99.90
10536;DHT22;5316;49.538;8.352;2023-07-29T17:00:57;26.50;1.00
10536;DHT22;5316;49.538;8.352;2023-07-29T17:03:27;26.50;1.00
10536;DHT22;5316;49.538;8.352;2023-07-29T17:06:09;26.20;99.90
10536;DHT22;5316;49.538;8.352;2023-07-29T17:08:37;26.30;99.90
10536;DHT22;5316;49.538;8.352;2023-07-29T17:11:04;26.30;99.90
10536;DHT22;5316;49.538;8.352;2023-07-29T17:13:32;26.20;1.00
10536;DHT22;5316;49.538;8.352;2023-07-29T17:16:15;26.10;1.00
10536;DHT22;5316;49.538;8.352;2023-07-29T17:18:43;26.10;1.00
10536;DHT22;5316;49.538;8.352;2023-07-29T17:21:12;26.20;99.90
10536;DHT22;5316;49.538;8.352;2023-07-29T17:23:39;26.30;99.90
10536;DHT22;5316;49.538;8.352;2023-07-29T17:26:06;26.40;99.90
10536;DHT22;5316;49.538;8.352;2023-07-29T17:28:34;26.70;99.60
10536;DHT22;5316;49.538;8.352;2023-07-29T17:31:01;26.90;1.00
10536;DHT22;5316;49.538;8.352;2023-07-29T17:33:29;27.20;99.90
10536;DHT22;5316;49.538;8.352;2023-07-29T17:35:56;27.30;99.90
10536;DHT22;5316;49.538;8.352;2023-07-29T17:38:25;27.50;99.90
10536;DHT22;5316;49.538;8.352;2023-07-29T17:40:56;27.70;1.00
10536;DHT22;5316;49.538;8.352;2023-07-29T17:43:36;27.70;99.90
10536;DHT22;5316;49.538;8.352;2023-07-29T17:46:12;27.50;99.90
10536;DHT22;5316;49.538;8.352;2023-07-29T17:48:44;27.10;1.00
10536;DHT22;5316;49.538;8.352;2023-07-29T17:51:11;26.80;99.90
10536;DHT22;5316;49.538;8.352;2023-07-29T17:53:40;26.50;99.90
10536;DHT22;5316;49.538;8.352;2023-07-29T17:56:07;26.30;99.90
10536;DHT22;5316;49.538;8.352;2023-07-29T17:58:34;26.30;99.90
10536;DHT22;5316;49.538;8.352;2023-07-29T18:01:02;26.20;99.90
10536;DHT22;5316;49.538;8.352;2023-07-29T18:03:29;26.20;99.90
10536;DHT22;5316;49.538;8.352;2023-07-29T18:05:57;26.10;1.00
10536;DHT22;5316;49.538;8.352;2023-07-29T18:08:25;26.20;1.00
10536;DHT22;5316;49.538;8.352;2023-07-29T18:10:54;26.30;1.00
10536;DHT22;5316;49.538;8.352;2023-07-29T18:13:24;26.60;99.90
10536;DHT22;5316;49.538;8.352;2023-07-29T18:15:52;26.60;1.00
10536;DHT22;5316;49.538;8.352;2023-07-29T18:18:19;26.50;1.00
10536;DHT22;5316;49.538;8.352;2023-07-29T18:20:48;26.30;1.00
10536;DHT22;5316;49.538;8.352;2023-07-29T18:23:16;26.20;1.00
10536;DHT22;5316;49.538;8.352;2023-07-29T18:25:43;26.00;38.70
10536;DHT22;5316;49.538;8.352;2023-07-29T18:28:12;25.70;99.90
10536;DHT22;5316;49.538;8.352;2023-07-29T18:30:41;25.50;99.90
10536;DHT22;5316;49.538;8.352;2023-07-29T18:33:08;25.40;99.90
10536;DHT22;5316;49.538;8.352;2023-07-29T18:35:40;25.30;99.90
10536;DHT22;5316;49.538;8.352;2023-07-29T18:38:07;25.20;99.90
10536;DHT22;5316;49.538;8.352;2023-07-29T18:40:34;25.20;99.90
10536;DHT22;5316;49.538;8.352;2023-07-29T18:43:02;25.20;99.90
10536;DHT22;5316;49.538;8.352;2023-07-29T18:45:33;25.10;99.90
10536;DHT22;5316;49.538;8.352;2023-07-29T18:48:00;25.00;99.90
10536;DHT22;5316;49.538;8.352;2023-07-29T18:50:27;24.90;99.90
10536;DHT22;5316;49.538;8.352;2023-07-29T18:52:54;24.80;99.90
10536;DHT22;5316;49.538;8.352;2023-07-29T18:55:23;24.70;99.90
10536;DHT22;5316;49.538;8.352;2023-07-29T18:57:51;24.60;99.90
10536;DHT22;5316;49.538;8.352;2023-07-29T19:00:21;24.50;99.90
10536;DHT22;5316;49.538;8.352;2023-07-29T19:02:51;24.40;99.90
10536;DHT22;5316;49.538;8.352;2023-07-29T19:05:20;24.40;99.90
10536;DHT22;5316;49.538;8.352;2023-07-29T19:07:47;24.30;99.90
10536;DHT22;5316;49.538;8.352;2023-07-29T19:10:14;24.20;99.90
10536;DHT22;5316;49.538;8.352;2023-07-29T19:12:43;24.10;99.90
10536;DHT22;5316;49.538;8.352;2023-07-29T19:15:11;24.00;1.00
10536;DHT22;5316;49.538;8.352;2023-07-29T19:17:40;24.00;1.00
10536;DHT22;5316;49.538;8.352;2023-07-29T19:20:09;23.80;1.00
10536;DHT22;5316;49.538;8.352;2023-07-29T19:22:38;23.70;1.00
10536;DHT22;5316;49.538;8.352;2023-07-29T19:25:06;23.70;1.00
10536;DHT22;5316;49.538;8.352;2023-07-29T19:27:34;23.60;1.00
10536;DHT22;5316;49.538;8.352;2023-07-29T19:30:02;23.50;1.00
10536;DHT22;5316;49.538;8.352;2023-07-29T19:32:30;23.40;1.00
10536;DHT22;5316;49.538;8.352;2023-07-29T19:34:58;23.40;1.00
10536;DHT22;5316;49.538;8.352;2023-07-29T19:37:27;23.40;1.00
10536;DHT22;5316;49.538;8.352;2023-07-29T19:39:56;23.30;1.00
10536;DHT22;5316;49.538;8.352;2023-07-29T19:42:24;23.20;1.00
10536;DHT22;5316;49.538;8.352;2023-07-29T19:44:51;23.20;1.00
10536;DHT22;5316;49.538;8.352;2023-07-29T19:47:22;23.10;1.00
10536;DHT22;5316;49.538;8.352;2023-07-29T19:49:49;23.10;1.00
10536;DHT22;5316;49.538;8.352;2023-07-29T19:52:25;23.00;1.00
10536;DHT22;5316;49.538;8.352;2023-07-29T19:54:57;22.90;1.00
10536;DHT22;5316;49.538;8.352;2023-07-29T19:57:25;22.90;1.00
10536;DHT22;5316;49.538;8.352;2023-07-29T19:59:54;23.00;1.00
10536;DHT22;5316;49.538;8.352;2023-07-29T20:02:22;22.80;1.00
10536;DHT22;5316;49.538;8.352;2023-07-29T20:04:53;22.90;1.00
10536;DHT22;5316;49.538;8.352;2023-07-29T20:07:21;23.00;1.00
10536;DHT22;5316;49.538;8.352;2023-07-29T20:09:48;22.60;1.00
10536;DHT22;5316;49.538;8.352;2023-07-29T20:12:17;22.70;1.00
10536;DHT22;5316;49.538;8.352;2023-07-29T20:14:44;22.80;1.00
10536;DHT22;5316;49.538;8.352;2023-07-29T20:17:12;22.70;1.00
10536;DHT22;5316;49.538;8.352;2023-07-29T20:19:39;22.70;1.00
10536;DHT22;5316;49.538;8.352;2023-07-29T20:22:08;22.70;1.00
10536;DHT22;5316;49.538;8.352;2023-07-29T20:24:35;22.70;1.00
10536;DHT22;5316;49.538;8.352;2023-07-29T20:27:03;22.70;1.00
10536;DHT22;5316;49.538;8.352;2023-07-29T20:29:34;22.50;1.00
10536;DHT22;5316;49.538;8.352;2023-07-29T20:32:02;22.60;1.00
10536;DHT22;5316;49.538;8.352;2023-07-29T20:34:30;22.60;1.00
10536;DHT22;5316;49.538;8.352;2023-07-29T20:36:58;22.60;1.00
10536;DHT22;5316;49.538;8.352;2023-07-29T20:39:26;22.60;1.00
10536;DHT22;5316;49.538;8.352;2023-07-29T20:41:54;22.60;1.00
10536;DHT22;5316;49.538;8.352;2023-07-29T20:44:26;22.60;1.00
10536;DHT22;5316;49.538;8.352;2023-07-29T20:46:57;22.50;1.00
10536;DHT22;5316;49.538;8.352;2023-07-29T20:49:24;22.50;1.00
10536;DHT22;5316;49.538;8.352;2023-07-29T20:51:55;22.50;1.00
10536;DHT22;5316;49.538;8.352;2023-07-29T20:54:22;22.50;1.00
10536;DHT22;5316;49.538;8.352;2023-07-29T20:56:50;22.70;1.00
10536;DHT22;5316;49.538;8.352;2023-07-29T20:59:17;22.50;1.00
10536;DHT22;5316;49.538;8.352;2023-07-29T21:01:44;22.60;1.00
10536;DHT22;5316;49.538;8.352;2023-07-29T21:04:12;22.60;1.00
10536;DHT22;5316;49.538;8.352;2023-07-29T21:06:41;22.70;1.00
10536;DHT22;5316;49.538;8.352;2023-07-29T21:09:10;22.60;1.00
10536;DHT22;5316;49.538;8.352;2023-07-29T21:11:38;22.60;1.00
10536;DHT22;5316;49.538;8.352;2023-07-29T21:14:05;22.60;1.00
10536;DHT22;5316;49.538;8.352;2023-07-29T21:16:32;22.40;1.00
10536;DHT22;5316;49.538;8.352;2023-07-29T21:19:00;22.40;1.00
10536;DHT22;5316;49.538;8.352;2023-07-29T21:21:28;22.30;1.00
10536;DHT22;5316;49.538;8.352;2023-07-29T21:23:56;22.30;1.00
10536;DHT22;5316;49.538;8.352;2023-07-29T21:26:23;22.30;1.00
10536;DHT22;5316;49.538;8.352;2023-07-29T21:28:50;22.20;1.00
10536;DHT22;5316;49.538;8.352;2023-07-29T21:31:17;22.20;1.00
10536;DHT22;5316;49.538;8.352;2023-07-29T21:33:43;22.20;1.00
10536;DHT22;5316;49.538;8.352;2023-07-29T21:36:10;22.20;1.00
10536;DHT22;5316;49.538;8.352;2023-07-29T21:38:39;22.20;1.00
10536;DHT22;5316;49.538;8.352;2023-07-29T21:41:06;22.20;1.00
10536;DHT22;5316;49.538;8.352;2023-07-29T21:43:33;22.10;1.00
10536;DHT22;5316;49.538;8.352;2023-07-29T21:46:00;22.10;1.00
10536;DHT22;5316;49.538;8.352;2023-07-29T21:48:27;22.00;1.00
10536;DHT22;5316;49.538;8.352;2023-07-29T21:50:55;22.10;1.00
10536;DHT22;5316;49.538;8.352;2023-07-29T21:53:22;22.00;1.00
10536;DHT22;5316;49.538;8.352;2023-07-29T21:55:50;21.60;42.50
10536;DHT22;5316;49.538;8.352;2023-07-29T21:58:19;21.90;99.90
10536;DHT22;5316;49.538;8.352;2023-07-29T22:00:50;21.80;99.90
10536;DHT22;5316;49.538;8.352;2023-07-29T22:03:18;21.60;99.90
10536;DHT22;5316;49.538;8.352;2023-07-29T22:05:45;21.70;99.90
10536;DHT22;5316;49.538;8.352;2023-07-29T22:08:12;21.30;99.90
10536;DHT22;5316;49.538;8.352;2023-07-29T22:10:39;21.40;99.90
10536;DHT22;5316;49.538;8.352;2023-07-29T22:13:07;21.20;99.90
10536;DHT22;5316;49.538;8.352;2023-07-29T22:15:34;21.30;99.90
10536;DHT22;5316;49.538;8.352;2023-07-29T22:18:02;21.20;99.90
10536;DHT22;5316;49.538;8.352;2023-07-29T22:20:29;21.20;99.90
10536;DHT22;5316;49.538;8.352;2023-07-29T22:22:56;21.20;99.90
10536;DHT22;5316;49.538;8.352;2023-07-29T22:25:23;21.10;99.90
10536;DHT22;5316;49.538;8.352;2023-07-29T22:27:50;21.10;99.90
10536;DHT22;5316;49.538;8.352;2023-07-29T22:30:19;21.00;99.90
10536;DHT22;5316;49.538;8.352;2023-07-29T22:32:46;21.00;99.90
